sensor_id;sensor_type;location;lat;lon;timestamp;P1;durP1;ratioP1;P2;durP2;ratioP2
82479;SDS011;72105;46.112;12.902;2024-03-23T00:52:45;15.18;;;8.65;;
82479;SDS011;72105;46.112;12.902;2024-03-23T00:55:11;16.98;;;9.10;;
82479;SDS011;72105;46.112;12.902;2024-03-23T00:57:37;16.13;;;10.00;;
82479;SDS011;72105;46.112;12.902;2024-03-23T01:00:04;14.45;;;8.88;;
82479;SDS011;72105;46.112;12.902;2024-03-23T01:04:57;12.70;;;8.10;;
82479;SDS011;72105;46.112;12.902;2024-03-23T01:07:23;15.88;;;9.15;;
82479;SDS011;72105;46.112;12.902;2024-03-23T01:09:49;13.30;;;8.40;;
82479;SDS011;72105;46.112;12.902;2024-03-23T01:12:17;14.00;;;8.13;;
82479;SDS011;72105;46.112;12.902;2024-03-23T01:14:43;13.45;;;8.38;;
82479;SDS011;72105;46.112;12.902;2024-03-23T01:17:09;17.08;;;8.15;;
82479;SDS011;72105;46.112;12.902;2024-03-23T01:19:35;13.75;;;8.38;;
82479;SDS011;72105;46.112;12.902;2024-03-23T01:22:01;14.40;;;8.02;;
82479;SDS011;72105;46.112;12.902;2024-03-23T01:24:27;12.98;;;7.95;;
82479;SDS011;72105;46.112;12.902;2024-03-23T01:26:53;13.07;;;8.38;;
82479;SDS011;72105;46.112;12.902;2024-03-23T01:29:20;14.88;;;8.82;;
82479;SDS011;72105;46.112;12.902;2024-03-23T01:31:46;15.70;;;8.40;;
82479;SDS011;72105;46.112;12.902;2024-03-23T01:34:12;13.40;;;8.52;;
82479;SDS011;72105;46.112;12.902;2024-03-23T01:36:38;15.15;;;8.82;;
82479;SDS011;72105;46.112;12.902;2024-03-23T01:39:05;13.63;;;9.02;;
82479;SDS011;72105;46.112;12.902;2024-03-23T01:41:34;13.52;;;8.55;;
82479;SDS011;72105;46.112;12.902;2024-03-23T01:44:03;11.35;;;7.35;;
82479;SDS011;72105;46.112;12.902;2024-03-23T01:46:31;14.27;;;7.40;;
82479;SDS011;72105;46.112;12.902;2024-03-23T01:48:57;14.50;;;8.27;;
82479;SDS011;72105;46.112;12.902;2024-03-23T01:51:23;12.13;;;7.40;;
82479;SDS011;72105;46.112;12.902;2024-03-23T01:53:49;11.80;;;8.32;;
82479;SDS011;72105;46.112;12.902;2024-03-23T01:56:16;12.80;;;7.53;;
82479;SDS011;72105;46.112;12.902;2024-03-23T01:58:42;10.75;;;6.97;;
82479;SDS011;72105;46.112;12.902;2024-03-23T02:01:08;13.98;;;7.97;;
82479;SDS011;72105;46.112;12.902;2024-03-23T02:03:34;14.98;;;7.82;;
82479;SDS011;72105;46.112;12.902;2024-03-23T02:06:00;14.00;;;8.75;;
82479;SDS011;72105;46.112;12.902;2024-03-23T02:08:26;9.55;;;6.88;;
82479;SDS011;72105;46.112;12.902;2024-03-23T02:10:52;14.30;;;7.63;;
82479;SDS011;72105;46.112;12.902;2024-03-23T02:13:18;11.95;;;6.93;;
82479;SDS011;72105;46.112;12.902;2024-03-23T02:15:45;10.88;;;6.50;;
82479;SDS011;72105;46.112;12.902;2024-03-23T02:18:11;9.80;;;7.40;;
82479;SDS011;72105;46.112;12.902;2024-03-23T02:20:37;10.25;;;6.45;;
82479;SDS011;72105;46.112;12.902;2024-03-23T02:23:04;7.18;;;5.38;;
82479;SDS011;72105;46.112;12.902;2024-03-23T02:27:57;10.82;;;6.05;;
82479;SDS011;72105;46.112;12.902;2024-03-23T02:30:24;10.07;;;6.70;;
82479;SDS011;72105;46.112;12.902;2024-03-23T02:32:53;10.40;;;6.32;;
82479;SDS011;72105;46.112;12.902;2024-03-23T02:35:19;9.27;;;6.03;;
82479;SDS011;72105;46.112;12.902;2024-03-23T02:37:46;9.02;;;5.93;;
82479;SDS011;72105;46.112;12.902;2024-03-23T02:40:14;9.82;;;6.30;;
82479;SDS011;72105;46.112;12.902;2024-03-23T02:42:40;11.77;;;6.35;;
82479;SDS011;72105;46.112;12.902;2024-03-23T02:45:06;9.82;;;5.90;;
82479;SDS011;72105;46.112;12.902;2024-03-23T02:47:32;8.88;;;5.65;;
82479;SDS011;72105;46.112;12.902;2024-03-23T02:49:59;8.80;;;5.22;;
82479;SDS011;72105;46.112;12.902;2024-03-23T02:52:25;8.48;;;5.95;;
82479;SDS011;72105;46.112;12.902;2024-03-23T02:54:51;10.15;;;5.90;;
82479;SDS011;72105;46.112;12.902;2024-03-23T02:57:17;11.77;;;6.65;;
82479;SDS011;72105;46.112;12.902;2024-03-23T02:59:46;8.70;;;5.20;;
82479;SDS011;72105;46.112;12.902;2024-03-23T03:02:13;7.57;;;5.47;;
82479;SDS011;72105;46.112;12.902;2024-03-23T03:04:39;7.32;;;5.30;;
82479;SDS011;72105;46.112;12.902;2024-03-23T03:07:08;7.68;;;5.20;;
82479;SDS011;72105;46.112;12.902;2024-03-23T03:09:34;9.50;;;5.75;;
82479;SDS011;72105;46.112;12.902;2024-03-23T03:12:01;7.53;;;5.47;;
82479;SDS011;72105;46.112;12.902;2024-03-23T03:14:28;10.27;;;5.60;;
82479;SDS011;72105;46.112;12.902;2024-03-23T03:16:54;9.85;;;5.70;;
82479;SDS011;72105;46.112;12.902;2024-03-23T03:19:20;7.43;;;4.90;;
82479;SDS011;72105;46.112;12.902;2024-03-23T03:21:46;9.48;;;5.50;;
82479;SDS011;72105;46.112;12.902;2024-03-23T03:24:15;7.22;;;4.60;;
82479;SDS011;72105;46.112;12.902;2024-03-23T03:26:42;8.55;;;4.88;;
82479;SDS011;72105;46.112;12.902;2024-03-23T03:29:08;7.18;;;5.25;;
82479;SDS011;72105;46.112;12.902;2024-03-23T03:31:34;8.43;;;5.30;;
82479;SDS011;72105;46.112;12.902;2024-03-23T03:34:00;8.55;;;5.15;;
82479;SDS011;72105;46.112;12.902;2024-03-23T03:36:27;8.45;;;5.50;;
82479;SDS011;72105;46.112;12.902;2024-03-23T03:38:54;8.57;;;5.93;;
82479;SDS011;72105;46.112;12.902;2024-03-23T03:41:20;9.00;;;5.10;;
82479;SDS011;72105;46.112;12.902;2024-03-23T03:43:46;7.35;;;5.07;;
82479;SDS011;72105;46.112;12.902;2024-03-23T03:46:12;8.75;;;4.60;;
82479;SDS011;72105;46.112;12.902;2024-03-23T03:48:38;8.35;;;5.15;;
82479;SDS011;72105;46.112;12.902;2024-03-23T03:51:04;8.98;;;5.50;;
82479;SDS011;72105;46.112;12.902;2024-03-23T03:53:30;10.20;;;5.03;;
82479;SDS011;72105;46.112;12.902;2024-03-23T03:56:00;7.10;;;4.55;;
82479;SDS011;72105;46.112;12.902;2024-03-23T03:58:26;9.15;;;4.93;;
82479;SDS011;72105;46.112;12.902;2024-03-23T04:00:53;7.20;;;4.75;;
82479;SDS011;72105;46.112;12.902;2024-03-23T04:03:19;7.28;;;5.90;;
82479;SDS011;72105;46.112;12.902;2024-03-23T04:05:54;10.05;;;6.15;;
82479;SDS011;72105;46.112;12.902;2024-03-23T04:08:21;8.38;;;5.40;;
82479;SDS011;72105;46.112;12.902;2024-03-23T04:10:47;10.90;;;5.60;;
82479;SDS011;72105;46.112;12.902;2024-03-23T04:13:13;9.38;;;5.43;;
82479;SDS011;72105;46.112;12.902;2024-03-23T04:15:43;9.60;;;5.85;;
82479;SDS011;72105;46.112;12.902;2024-03-23T04:18:09;8.50;;;5.03;;
82479;SDS011;72105;46.112;12.902;2024-03-23T04:20:35;10.15;;;6.30;;
82479;SDS011;72105;46.112;12.902;2024-03-23T04:23:01;9.18;;;5.65;;
82479;SDS011;72105;46.112;12.902;2024-03-23T04:25:27;10.32;;;5.45;;
82479;SDS011;72105;46.112;12.902;2024-03-23T04:27:53;8.55;;;5.72;;
82479;SDS011;72105;46.112;12.902;2024-03-23T04:30:19;10.80;;;6.45;;
82479;SDS011;72105;46.112;12.902;2024-03-23T04:32:46;10.38;;;6.03;;
82479;SDS011;72105;46.112;12.902;2024-03-23T04:35:12;8.73;;;5.47;;
82479;SDS011;72105;46.112;12.902;2024-03-23T04:37:39;9.60;;;5.80;;
82479;SDS011;72105;46.112;12.902;2024-03-23T04:40:08;11.80;;;5.88;;
82479;SDS011;72105;46.112;12.902;2024-03-23T04:42:36;7.78;;;5.60;;
82479;SDS011;72105;46.112;12.902;2024-03-23T04:45:02;8.95;;;5.75;;
82479;SDS011;72105;46.112;12.902;2024-03-23T04:47:29;11.65;;;5.40;;
82479;SDS011;72105;46.112;12.902;2024-03-23T04:49:55;11.63;;;6.07;;
82479;SDS011;72105;46.112;12.902;2024-03-23T04:52:21;9.18;;;5.35;;
82479;SDS011;72105;46.112;12.902;2024-03-23T04:54:47;11.95;;;6.18;;
82479;SDS011;72105;46.112;12.902;2024-03-23T04:57:13;8.18;;;5.63;;
82479;SDS011;72105;46.112;12.902;2024-03-23T04:59:39;7.57;;;5.22;;
82479;SDS011;72105;46.112;12.902;2024-03-23T05:02:05;8.55;;;6.07;;
82479;SDS011;72105;46.112;12.902;2024-03-23T05:04:31;8.63;;;5.38;;
82479;SDS011;72105;46.112;12.902;2024-03-23T05:06:57;8.73;;;5.57;;
82479;SDS011;72105;46.112;12.902;2024-03-23T05:09:23;8.13;;;5.60;;
82479;SDS011;72105;46.112;12.902;2024-03-23T05:11:49;8.32;;;6.13;;
82479;SDS011;72105;46.112;12.902;2024-03-23T05:14:16;7.88;;;5.80;;
82479;SDS011;72105;46.112;12.902;2024-03-23T05:16:42;8.18;;;5.40;;
82479;SDS011;72105;46.112;12.902;2024-03-23T05:19:08;9.45;;;5.57;;
82479;SDS011;72105;46.112;12.902;2024-03-23T05:21:34;9.65;;;5.60;;
82479;SDS011;72105;46.112;12.902;2024-03-23T05:24:00;10.63;;;5.95;;
82479;SDS011;72105;46.112;12.902;2024-03-23T05:26:26;8.80;;;5.47;;
82479;SDS011;72105;46.112;12.902;2024-03-23T05:28:52;8.93;;;5.40;;
82479;SDS011;72105;46.112;12.902;2024-03-23T05:31:25;9.15;;;5.35;;
82479;SDS011;72105;46.112;12.902;2024-03-23T05:33:51;12.00;;;5.70;;
82479;SDS011;72105;46.112;12.902;2024-03-23T05:36:17;10.30;;;6.78;;
82479;SDS011;72105;46.112;12.902;2024-03-23T05:38:44;8.95;;;6.85;;
82479;SDS011;72105;46.112;12.902;2024-03-23T05:41:10;11.25;;;7.47;;
82479;SDS011;72105;46.112;12.902;2024-03-23T05:43:36;13.20;;;7.45;;
82479;SDS011;72105;46.112;12.902;2024-03-23T05:46:03;12.23;;;8.00;;
82479;SDS011;72105;46.112;12.902;2024-03-23T05:48:33;18.58;;;11.25;;
82479;SDS011;72105;46.112;12.902;2024-03-23T05:50:59;12.98;;;8.02;;
82479;SDS011;72105;46.112;12.902;2024-03-23T05:53:26;13.02;;;7.72;;
82479;SDS011;72105;46.112;12.902;2024-03-23T05:58:21;12.32;;;7.45;;
82479;SDS011;72105;46.112;12.902;2024-03-23T06:00:47;9.05;;;6.20;;
82479;SDS011;72105;46.112;12.902;2024-03-23T06:03:14;10.52;;;6.13;;
82479;SDS011;72105;46.112;12.902;2024-03-23T06:05:40;8.48;;;5.53;;
82479;SDS011;72105;46.112;12.902;2024-03-23T06:08:07;8.45;;;5.85;;
82479;SDS011;72105;46.112;12.902;2024-03-23T06:10:34;9.10;;;5.57;;
82479;SDS011;72105;46.112;12.902;2024-03-23T06:13:01;9.77;;;5.70;;
82479;SDS011;72105;46.112;12.902;2024-03-23T06:15:27;10.43;;;5.63;;
82479;SDS011;72105;46.112;12.902;2024-03-23T06:17:53;9.43;;;6.18;;
82479;SDS011;72105;46.112;12.902;2024-03-23T06:20:19;10.88;;;6.05;;
82479;SDS011;72105;46.112;12.902;2024-03-23T06:22:45;9.57;;;5.88;;
82479;SDS011;72105;46.112;12.902;2024-03-23T06:25:11;8.57;;;5.57;;
82479;SDS011;72105;46.112;12.902;2024-03-23T06:27:37;9.93;;;4.90;;
82479;SDS011;72105;46.112;12.902;2024-03-23T06:30:04;8.18;;;4.75;;
82479;SDS011;72105;46.112;12.902;2024-03-23T06:32:30;5.97;;;4.15;;
82479;SDS011;72105;46.112;12.902;2024-03-23T06:34:57;6.00;;;4.18;;
82479;SDS011;72105;46.112;12.902;2024-03-23T06:37:23;6.13;;;4.00;;
82479;SDS011;72105;46.112;12.902;2024-03-23T06:39:49;6.40;;;4.15;;
82479;SDS011;72105;46.112;12.902;2024-03-23T06:42:15;6.72;;;3.90;;
82479;SDS011;72105;46.112;12.902;2024-03-23T06:44:41;7.38;;;3.92;;
82479;SDS011;72105;46.112;12.902;2024-03-23T06:47:07;6.90;;;4.70;;
82479;SDS011;72105;46.112;12.902;2024-03-23T06:49:33;8.50;;;4.50;;
82479;SDS011;72105;46.112;12.902;2024-03-23T06:52:00;7.80;;;4.70;;
82479;SDS011;72105;46.112;12.902;2024-03-23T06:54:26;9.52;;;4.15;;
82479;SDS011;72105;46.112;12.902;2024-03-23T06:56:52;6.97;;;4.70;;
82479;SDS011;72105;46.112;12.902;2024-03-23T06:59:18;6.97;;;4.70;;
82479;SDS011;72105;46.112;12.902;2024-03-23T07:01:44;7.88;;;4.22;;
82479;SDS011;72105;46.112;12.902;2024-03-23T07:04:10;5.75;;;3.97;;
82479;SDS011;72105;46.112;12.902;2024-03-23T07:06:42;5.40;;;4.22;;
82479;SDS011;72105;46.112;12.902;2024-03-23T07:09:09;5.38;;;4.15;;
82479;SDS011;72105;46.112;12.902;2024-03-23T07:11:35;6.57;;;4.13;;
82479;SDS011;72105;46.112;12.902;2024-03-23T07:14:01;7.40;;;4.72;;
82479;SDS011;72105;46.112;12.902;2024-03-23T07:16:28;6.15;;;4.75;;
82479;SDS011;72105;46.112;12.902;2024-03-23T07:18:54;7.13;;;4.43;;
82479;SDS011;72105;46.112;12.902;2024-03-23T07:21:20;6.15;;;4.53;;
82479;SDS011;72105;46.112;12.902;2024-03-23T07:23:47;5.78;;;4.15;;
82479;SDS011;72105;46.112;12.902;2024-03-23T07:26:13;7.05;;;5.05;;
82479;SDS011;72105;46.112;12.902;2024-03-23T07:28:40;6.18;;;4.63;;
82479;SDS011;72105;46.112;12.902;2024-03-23T07:31:11;8.85;;;5.38;;
82479;SDS011;72105;46.112;12.902;2024-03-23T07:33:41;7.13;;;4.88;;
82479;SDS011;72105;46.112;12.902;2024-03-23T07:36:07;9.35;;;5.57;;
82479;SDS011;72105;46.112;12.902;2024-03-23T07:38:34;7.95;;;5.88;;
82479;SDS011;72105;46.112;12.902;2024-03-23T07:41:10;9.18;;;6.05;;
82479;SDS011;72105;46.112;12.902;2024-03-23T07:43:37;12.13;;;6.85;;
82479;SDS011;72105;46.112;12.902;2024-03-23T07:46:03;9.63;;;7.43;;
82479;SDS011;72105;46.112;12.902;2024-03-23T07:48:29;11.18;;;7.22;;
82479;SDS011;72105;46.112;12.902;2024-03-23T07:51:16;13.10;;;6.40;;
82479;SDS011;72105;46.112;12.902;2024-03-23T07:53:43;15.50;;;7.20;;
82479;SDS011;72105;46.112;12.902;2024-03-23T07:56:13;13.55;;;6.60;;
82479;SDS011;72105;46.112;12.902;2024-03-23T07:58:49;14.10;;;6.80;;
82479;SDS011;72105;46.112;12.902;2024-03-23T08:01:15;11.80;;;6.50;;
82479;SDS011;72105;46.112;12.902;2024-03-23T08:03:43;13.68;;;6.82;;
82479;SDS011;72105;46.112;12.902;2024-03-23T08:06:16;12.20;;;7.25;;
82479;SDS011;72105;46.112;12.902;2024-03-23T08:08:44;11.50;;;6.82;;
82479;SDS011;72105;46.112;12.902;2024-03-23T08:11:10;14.98;;;8.60;;
82479;SDS011;72105;46.112;12.902;2024-03-23T08:13:37;15.55;;;7.65;;
82479;SDS011;72105;46.112;12.902;2024-03-23T08:16:04;13.95;;;8.15;;
82479;SDS011;72105;46.112;12.902;2024-03-23T08:18:30;18.35;;;9.23;;
82479;SDS011;72105;46.112;12.902;2024-03-23T08:20:57;14.52;;;9.15;;
82479;SDS011;72105;46.112;12.902;2024-03-23T08:23:24;14.55;;;8.82;;
82479;SDS011;72105;46.112;12.902;2024-03-23T08:25:50;17.20;;;9.30;;
82479;SDS011;72105;46.112;12.902;2024-03-23T08:28:17;17.08;;;9.35;;
82479;SDS011;72105;46.112;12.902;2024-03-23T08:30:43;19.85;;;10.02;;
82479;SDS011;72105;46.112;12.902;2024-03-23T08:33:09;20.17;;;10.48;;
82479;SDS011;72105;46.112;12.902;2024-03-23T08:35:35;17.13;;;9.30;;
82479;SDS011;72105;46.112;12.902;2024-03-23T08:38:01;15.48;;;9.48;;
82479;SDS011;72105;46.112;12.902;2024-03-23T08:40:28;16.58;;;9.65;;
82479;SDS011;72105;46.112;12.902;2024-03-23T08:42:54;14.43;;;8.02;;
82479;SDS011;72105;46.112;12.902;2024-03-23T08:45:20;15.45;;;7.88;;
82479;SDS011;72105;46.112;12.902;2024-03-23T08:47:46;19.63;;;11.05;;
82479;SDS011;72105;46.112;12.902;2024-03-23T08:50:12;16.02;;;8.77;;
82479;SDS011;72105;46.112;12.902;2024-03-23T08:52:38;16.73;;;8.82;;
82479;SDS011;72105;46.112;12.902;2024-03-23T08:55:05;22.27;;;10.32;;
82479;SDS011;72105;46.112;12.902;2024-03-23T08:57:31;21.65;;;10.13;;
82479;SDS011;72105;46.112;12.902;2024-03-23T08:59:57;19.50;;;10.68;;
82479;SDS011;72105;46.112;12.902;2024-03-23T09:02:23;20.67;;;11.18;;
82479;SDS011;72105;46.112;12.902;2024-03-23T09:04:49;19.50;;;10.52;;
82479;SDS011;72105;46.112;12.902;2024-03-23T09:07:15;20.40;;;10.20;;
82479;SDS011;72105;46.112;12.902;2024-03-23T09:09:41;20.60;;;10.80;;
82479;SDS011;72105;46.112;12.902;2024-03-23T09:12:08;19.85;;;11.32;;
82479;SDS011;72105;46.112;12.902;2024-03-23T09:14:34;18.60;;;9.88;;
82479;SDS011;72105;46.112;12.902;2024-03-23T09:17:00;17.80;;;9.38;;
82479;SDS011;72105;46.112;12.902;2024-03-23T09:19:29;21.02;;;10.70;;
82479;SDS011;72105;46.112;12.902;2024-03-23T09:21:55;20.80;;;11.00;;
82479;SDS011;72105;46.112;12.902;2024-03-23T09:24:21;18.33;;;10.38;;
82479;SDS011;72105;46.112;12.902;2024-03-23T09:26:47;19.10;;;11.27;;
82479;SDS011;72105;46.112;12.902;2024-03-23T09:29:14;18.13;;;11.40;;
82479;SDS011;72105;46.112;12.902;2024-03-23T09:31:40;17.30;;;10.95;;
82479;SDS011;72105;46.112;12.902;2024-03-23T09:34:06;17.33;;;9.93;;
82479;SDS011;72105;46.112;12.902;2024-03-23T09:36:36;22.48;;;12.52;;
82479;SDS011;72105;46.112;12.902;2024-03-23T09:39:02;23.48;;;12.95;;
82479;SDS011;72105;46.112;12.902;2024-03-23T09:41:30;21.83;;;12.40;;
82479;SDS011;72105;46.112;12.902;2024-03-23T09:43:56;22.08;;;12.20;;
82479;SDS011;72105;46.112;12.902;2024-03-23T09:46:22;19.38;;;11.50;;
82479;SDS011;72105;46.112;12.902;2024-03-23T09:48:48;18.88;;;12.93;;
82479;SDS011;72105;46.112;12.902;2024-03-23T09:51:15;19.13;;;11.18;;
82479;SDS011;72105;46.112;12.902;2024-03-23T09:53:41;18.65;;;10.90;;
82479;SDS011;72105;46.112;12.902;2024-03-23T09:56:07;18.98;;;11.40;;
82479;SDS011;72105;46.112;12.902;2024-03-23T09:58:34;20.27;;;12.35;;
82479;SDS011;72105;46.112;12.902;2024-03-23T10:01:00;17.52;;;11.00;;
82479;SDS011;72105;46.112;12.902;2024-03-23T10:03:26;17.67;;;10.85;;
82479;SDS011;72105;46.112;12.902;2024-03-23T10:06:02;17.35;;;10.90;;
82479;SDS011;72105;46.112;12.902;2024-03-23T10:08:29;17.45;;;10.50;;
82479;SDS011;72105;46.112;12.902;2024-03-23T10:13:26;17.73;;;10.30;;
82479;SDS011;72105;46.112;12.902;2024-03-23T10:15:58;18.10;;;11.77;;
82479;SDS011;72105;46.112;12.902;2024-03-23T10:18:25;15.15;;;10.13;;
82479;SDS011;72105;46.112;12.902;2024-03-23T10:23:19;15.10;;;10.88;;
82479;SDS011;72105;46.112;12.902;2024-03-23T10:25:45;18.48;;;10.63;;
82479;SDS011;72105;46.112;12.902;2024-03-23T10:28:12;16.63;;;11.27;;
82479;SDS011;72105;46.112;12.902;2024-03-23T10:30:38;15.88;;;10.93;;
82479;SDS011;72105;46.112;12.902;2024-03-23T10:33:07;18.75;;;10.80;;
82479;SDS011;72105;46.112;12.902;2024-03-23T10:35:33;18.73;;;9.57;;
82479;SDS011;72105;46.112;12.902;2024-03-23T10:38:00;17.27;;;11.18;;
82479;SDS011;72105;46.112;12.902;2024-03-23T10:40:26;18.20;;;12.27;;
82479;SDS011;72105;46.112;12.902;2024-03-23T10:42:53;15.63;;;10.02;;
82479;SDS011;72105;46.112;12.902;2024-03-23T10:45:24;18.13;;;10.95;;
82479;SDS011;72105;46.112;12.902;2024-03-23T10:47:50;18.70;;;11.65;;
82479;SDS011;72105;46.112;12.902;2024-03-23T10:52:47;15.98;;;11.13;;
82479;SDS011;72105;46.112;12.902;2024-03-23T10:55:13;22.00;;;12.57;;
82479;SDS011;72105;46.112;12.902;2024-03-23T10:57:41;16.52;;;10.80;;
82479;SDS011;72105;46.112;12.902;2024-03-23T11:00:09;16.92;;;11.70;;
82479;SDS011;72105;46.112;12.902;2024-03-23T11:02:36;15.95;;;10.95;;
82479;SDS011;72105;46.112;12.902;2024-03-23T11:05:06;19.33;;;12.00;;
82479;SDS011;72105;46.112;12.902;2024-03-23T11:10:32;18.90;;;12.40;;
82479;SDS011;72105;46.112;12.902;2024-03-23T11:15:45;18.83;;;11.82;;
82479;SDS011;72105;46.112;12.902;2024-03-23T11:18:11;16.85;;;10.85;;
82479;SDS011;72105;46.112;12.902;2024-03-23T11:20:45;15.85;;;11.82;;
82479;SDS011;72105;46.112;12.902;2024-03-23T11:23:27;17.70;;;12.10;;
82479;SDS011;72105;46.112;12.902;2024-03-23T11:25:53;18.27;;;11.43;;
82479;SDS011;72105;46.112;12.902;2024-03-23T11:28:19;16.75;;;10.65;;
82479;SDS011;72105;46.112;12.902;2024-03-23T11:30:46;17.70;;;12.68;;
82479;SDS011;72105;46.112;12.902;2024-03-23T11:33:13;18.42;;;12.13;;
82479;SDS011;72105;46.112;12.902;2024-03-23T11:35:40;18.83;;;12.05;;
82479;SDS011;72105;46.112;12.902;2024-03-23T11:38:07;17.23;;;10.82;;
82479;SDS011;72105;46.112;12.902;2024-03-23T11:40:34;16.38;;;11.32;;
82479;SDS011;72105;46.112;12.902;2024-03-23T11:43:01;20.42;;;11.25;;
82479;SDS011;72105;46.112;12.902;2024-03-23T11:45:28;20.42;;;13.90;;
82479;SDS011;72105;46.112;12.902;2024-03-23T11:48:04;18.80;;;12.02;;
82479;SDS011;72105;46.112;12.902;2024-03-23T11:50:30;19.25;;;13.27;;
82479;SDS011;72105;46.112;12.902;2024-03-23T11:58:07;18.75;;;13.23;;
82479;SDS011;72105;46.112;12.902;2024-03-23T12:00:34;18.25;;;12.05;;
82479;SDS011;72105;46.112;12.902;2024-03-23T12:03:03;19.15;;;12.15;;
82479;SDS011;72105;46.112;12.902;2024-03-23T12:05:29;22.38;;;14.73;;
82479;SDS011;72105;46.112;12.902;2024-03-23T12:08:14;19.90;;;13.23;;
82479;SDS011;72105;46.112;12.902;2024-03-23T12:10:43;16.95;;;11.48;;
82479;SDS011;72105;46.112;12.902;2024-03-23T12:13:09;18.80;;;11.95;;
82479;SDS011;72105;46.112;12.902;2024-03-23T12:15:35;18.52;;;12.02;;
82479;SDS011;72105;46.112;12.902;2024-03-23T12:18:08;18.67;;;13.25;;
82479;SDS011;72105;46.112;12.902;2024-03-23T12:23:05;16.90;;;12.25;;
82479;SDS011;72105;46.112;12.902;2024-03-23T12:25:31;18.27;;;11.55;;
82479;SDS011;72105;46.112;12.902;2024-03-23T12:27:58;19.80;;;12.55;;
82479;SDS011;72105;46.112;12.902;2024-03-23T12:30:24;15.23;;;11.65;;
82479;SDS011;72105;46.112;12.902;2024-03-23T12:32:50;16.30;;;12.55;;
82479;SDS011;72105;46.112;12.902;2024-03-23T12:35:17;17.42;;;12.93;;
82479;SDS011;72105;46.112;12.902;2024-03-23T12:37:43;15.98;;;11.27;;
82479;SDS011;72105;46.112;12.902;2024-03-23T12:40:09;18.70;;;12.73;;
82479;SDS011;72105;46.112;12.902;2024-03-23T12:42:36;57.80;;;35.25;;
82479;SDS011;72105;46.112;12.902;2024-03-23T12:45:02;18.58;;;12.75;;
82479;SDS011;72105;46.112;12.902;2024-03-23T12:47:30;20.10;;;13.10;;
82479;SDS011;72105;46.112;12.902;2024-03-23T12:49:56;23.65;;;16.33;;
82479;SDS011;72105;46.112;12.902;2024-03-23T12:52:22;18.42;;;12.18;;
82479;SDS011;72105;46.112;12.902;2024-03-23T12:54:53;19.50;;;12.05;;
82479;SDS011;72105;46.112;12.902;2024-03-23T12:57:21;17.42;;;12.18;;
82479;SDS011;72105;46.112;12.902;2024-03-23T12:59:47;20.33;;;13.02;;
82479;SDS011;72105;46.112;12.902;2024-03-23T13:02:16;18.77;;;12.10;;
82479;SDS011;72105;46.112;12.902;2024-03-23T13:04:42;24.25;;;13.27;;
82479;SDS011;72105;46.112;12.902;2024-03-23T13:07:08;21.10;;;13.75;;
82479;SDS011;72105;46.112;12.902;2024-03-23T13:09:34;23.58;;;14.10;;
82479;SDS011;72105;46.112;12.902;2024-03-23T13:12:00;19.08;;;12.82;;
82479;SDS011;72105;46.112;12.902;2024-03-23T13:14:27;24.52;;;14.20;;
82479;SDS011;72105;46.112;12.902;2024-03-23T13:16:53;19.25;;;12.65;;
82479;SDS011;72105;46.112;12.902;2024-03-23T13:19:19;17.88;;;12.45;;
82479;SDS011;72105;46.112;12.902;2024-03-23T13:21:45;20.98;;;13.13;;
82479;SDS011;72105;46.112;12.902;2024-03-23T13:24:12;21.05;;;13.00;;
82479;SDS011;72105;46.112;12.902;2024-03-23T13:26:38;20.45;;;14.07;;
82479;SDS011;72105;46.112;12.902;2024-03-23T13:29:04;22.98;;;14.23;;
82479;SDS011;72105;46.112;12.902;2024-03-23T13:31:30;17.10;;;12.98;;
82479;SDS011;72105;46.112;12.902;2024-03-23T13:33:56;16.40;;;11.88;;
82479;SDS011;72105;46.112;12.902;2024-03-23T13:36:28;18.17;;;12.38;;
82479;SDS011;72105;46.112;12.902;2024-03-23T13:38:54;20.13;;;13.55;;
82479;SDS011;72105;46.112;12.902;2024-03-23T13:41:20;20.60;;;12.38;;
82479;SDS011;72105;46.112;12.902;2024-03-23T13:43:46;18.63;;;11.80;;
82479;SDS011;72105;46.112;12.902;2024-03-23T13:46:12;19.60;;;13.85;;
82479;SDS011;72105;46.112;12.902;2024-03-23T13:48:39;18.50;;;12.85;;
82479;SDS011;72105;46.112;12.902;2024-03-23T13:51:07;20.60;;;14.43;;
82479;SDS011;72105;46.112;12.902;2024-03-23T13:53:33;19.92;;;13.32;;
82479;SDS011;72105;46.112;12.902;2024-03-23T13:55:59;21.20;;;13.68;;
82479;SDS011;72105;46.112;12.902;2024-03-23T13:58:26;23.40;;;13.90;;
82479;SDS011;72105;46.112;12.902;2024-03-23T14:00:52;19.60;;;13.30;;
82479;SDS011;72105;46.112;12.902;2024-03-23T14:03:18;21.08;;;12.98;;
82479;SDS011;72105;46.112;12.902;2024-03-23T14:05:44;23.30;;;13.40;;
82479;SDS011;72105;46.112;12.902;2024-03-23T14:08:12;22.90;;;13.60;;
82479;SDS011;72105;46.112;12.902;2024-03-23T14:10:41;22.02;;;13.52;;
82479;SDS011;72105;46.112;12.902;2024-03-23T14:13:08;21.42;;;14.13;;
82479;SDS011;72105;46.112;12.902;2024-03-23T14:15:34;21.50;;;12.63;;
82479;SDS011;72105;46.112;12.902;2024-03-23T14:18:02;23.65;;;14.18;;
82479;SDS011;72105;46.112;12.902;2024-03-23T14:20:28;22.92;;;13.73;;
82479;SDS011;72105;46.112;12.902;2024-03-23T14:22:54;20.23;;;13.00;;
82479;SDS011;72105;46.112;12.902;2024-03-23T14:25:21;19.90;;;12.77;;
82479;SDS011;72105;46.112;12.902;2024-03-23T14:27:52;24.23;;;13.82;;
82479;SDS011;72105;46.112;12.902;2024-03-23T14:30:18;20.50;;;12.10;;
82479;SDS011;72105;46.112;12.902;2024-03-23T14:32:44;21.92;;;13.27;;
82479;SDS011;72105;46.112;12.902;2024-03-23T14:35:10;20.52;;;13.15;;
82479;SDS011;72105;46.112;12.902;2024-03-23T14:37:37;20.48;;;13.25;;
82479;SDS011;72105;46.112;12.902;2024-03-23T14:40:03;21.40;;;13.40;;
82479;SDS011;72105;46.112;12.902;2024-03-23T14:42:30;18.60;;;12.90;;
82479;SDS011;72105;46.112;12.902;2024-03-23T14:44:57;19.17;;;13.02;;
82479;SDS011;72105;46.112;12.902;2024-03-23T14:47:23;19.02;;;13.20;;
82479;SDS011;72105;46.112;12.902;2024-03-23T14:49:50;19.08;;;13.50;;
82479;SDS011;72105;46.112;12.902;2024-03-23T14:52:16;19.35;;;12.48;;
82479;SDS011;72105;46.112;12.902;2024-03-23T14:54:43;21.92;;;13.85;;
82479;SDS011;72105;46.112;12.902;2024-03-23T14:57:09;23.08;;;14.15;;
82479;SDS011;72105;46.112;12.902;2024-03-23T14:59:36;20.38;;;14.13;;
82479;SDS011;72105;46.112;12.902;2024-03-23T15:02:06;21.00;;;14.38;;
82479;SDS011;72105;46.112;12.902;2024-03-23T15:04:32;20.25;;;13.52;;
82479;SDS011;72105;46.112;12.902;2024-03-23T15:06:58;22.40;;;14.32;;
82479;SDS011;72105;46.112;12.902;2024-03-23T15:09:25;19.67;;;12.90;;
82479;SDS011;72105;46.112;12.902;2024-03-23T15:11:51;22.40;;;14.90;;
82479;SDS011;72105;46.112;12.902;2024-03-23T15:14:17;20.30;;;14.07;;
82479;SDS011;72105;46.112;12.902;2024-03-23T15:16:43;21.10;;;14.52;;
82479;SDS011;72105;46.112;12.902;2024-03-23T15:19:09;21.23;;;13.70;;
82479;SDS011;72105;46.112;12.902;2024-03-23T15:21:35;22.30;;;13.80;;
82479;SDS011;72105;46.112;12.902;2024-03-23T15:24:01;22.85;;;14.02;;
82479;SDS011;72105;46.112;12.902;2024-03-23T15:26:27;23.23;;;13.82;;
82479;SDS011;72105;46.112;12.902;2024-03-23T15:28:53;20.52;;;13.98;;
82479;SDS011;72105;46.112;12.902;2024-03-23T15:31:35;23.80;;;14.15;;
82479;SDS011;72105;46.112;12.902;2024-03-23T15:34:01;23.65;;;15.20;;
82479;SDS011;72105;46.112;12.902;2024-03-23T15:36:28;23.80;;;14.13;;